Time;durP1;ratioP1;P1;durP2;ratioP2;P2;SDS_P1;SDS_P2;PMS_P1;PMS_P2;Temp;Humidity;BMP_temperature;BMP_pressure;BME280_temperature;BME280_humidity;BME280_pressure;Samples;Min_cycle;Max_cycle;Signal;HPM_P1;HPM_P2
2023/09/24 06:45:19;;;;;;;4.25;1.80;;;;;;;10.73;78.37;97565.50;2084262;28;20572;-67
2023/09/24 06:47:25;;;;;;;5.55;1.85;;;;;;;10.93;77.90;97564.88;2097103;27;20571;-68
2023/09/24 06:48:27;;;;;;;3.97;1.48;;;;;;;10.93;77.46;97562.25;2098529;28;20671;-67
2023/09/24 06:49:29;;;;;;;2.33;1.33;;;;;;;10.94;77.61;97553.53;2096495;28;20655;-67
2023/09/24 06:50:30;;;;;;;3.40;1.45;;;;;;;11.33;76.93;97556.66;2096292;28;20193;-68
2023/09/24 06:51:32;;;;;;;2.72;1.40;;;;;;;11.24;76.36;97561.25;2094045;28;20223;-67
2023/09/24 06:52:34;;;;;;;9.20;1.58;;;;;;;11.79;75.92;97560.31;2094164;28;20207;-67
2023/09/24 06:53:37;;;;;;;2.85;1.33;;;;;;;11.83;75.24;97559.28;2090195;28;20193;-67
2023/09/24 06:54:39;;;;;;;3.45;1.50;;;;;;;12.01;74.73;97565.69;2089209;28;20204;-67
2023/09/24 06:55:40;;;;;;;6.95;1.77;;;;;;;12.15;74.30;97553.84;2089059;28;20197;-67
2023/09/24 06:56:42;;;;;;;4.30;1.50;;;;;;;12.44;73.74;97555.38;2089357;28;20232;-67
2023/09/24 06:57:44;;;;;;;3.25;1.80;;;;;;;12.76;72.22;97557.66;2087176;28;20560;-68
2023/09/24 06:58:46;;;;;;;8.27;1.55;;;;;;;12.41;73.29;97555.50;2087530;28;20245;-67
2023/09/24 06:59:47;;;;;;;3.78;1.63;;;;;;;12.68;73.11;97560.59;2091551;28;20227;-67
2023/09/24 07:00:49;;;;;;;2.47;1.33;;;;;;;12.73;72.73;97558.66;2090718;28;20197;-67
2023/09/24 07:01:51;;;;;;;4.30;1.52;;;;;;;12.84;72.66;97555.63;2088751;28;20232;-67
2023/09/24 07:02:52;;;;;;;4.35;1.77;;;;;;;12.67;73.08;97556.25;2088830;28;20201;-67
2023/09/24 07:03:55;;;;;;;3.63;1.58;;;;;;;12.99;72.22;97562.00;2092490;28;20200;-67
2023/09/24 07:04:57;;;;;;;2.60;1.33;;;;;;;13.46;70.85;97561.88;2092728;28;20317;-68
2023/09/24 07:05:59;;;;;;;4.43;1.35;;;;;;;13.84;69.41;97556.78;2090633;28;20307;-67
2023/09/24 07:07:01;;;;;;;8.38;1.70;;;;;;;13.40;71.01;97567.38;2089325;28;20225;-68
2023/09/24 07:08:04;;;;;;;6.00;2.33;;;;;;;13.63;70.17;97555.91;2088946;28;20192;-67
2023/09/24 07:09:05;;;;;;;3.38;1.63;;;;;;;14.73;67.58;97564.22;2089818;28;20687;-67
2023/09/24 07:10:07;;;;;;;4.20;2.00;;;;;;;13.87;68.65;97566.28;2092405;28;20212;-67
2023/09/24 07:11:27;;;;;;;2.67;1.20;;;;;;;13.76;69.54;97574.59;2092161;28;20266;-67
2023/09/24 07:12:29;;;;;;;4.78;1.25;;;;;;;14.02;69.53;97576.13;2090449;28;20216;-67
2023/09/24 07:13:31;;;;;;;4.30;1.60;;;;;;;13.95;69.62;97576.44;2088914;28;20545;-67
2023/09/24 07:14:32;;;;;;;5.15;1.88;;;;;;;14.23;69.26;97570.81;2088413;28;20204;-67
2023/09/24 07:15:34;;;;;;;2.38;1.27;;;;;;;14.63;68.06;97570.81;2090841;28;20191;-67
2023/09/24 07:16:35;;;;;;;3.42;1.33;;;;;;;14.95;67.05;97576.34;2090514;28;20794;-67
2023/09/24 07:17:37;;;;;;;3.33;1.30;;;;;;;15.27;66.91;97576.56;2086898;28;20298;-68
2023/09/24 07:18:39;;;;;;;2.90;1.35;;;;;;;15.43;65.08;97566.16;2090457;28;20272;-67
2023/09/24 07:19:41;;;;;;;5.70;1.30;;;;;;;14.89;66.43;97571.38;2089663;28;20202;-67
2023/09/24 07:20:47;;;;;;;5.78;1.73;;;;;;;14.58;67.34;97571.00;2087000;28;20212;-67
2023/09/24 07:21:49;;;;;;;3.38;1.50;;;;;;;14.93;67.42;97572.94;2086961;28;20261;-67
2023/09/24 07:22:51;;;;;;;4.15;1.50;;;;;;;15.87;65.65;97572.75;2090223;28;20290;-67
2023/09/24 07:23:56;;;;;;;4.10;1.40;;;;;;;16.03;64.73;97568.41;2089560;28;20296;-67
2023/09/24 07:24:58;;;;;;;3.85;1.42;;;;;;;15.59;65.16;97576.75;2089806;28;20227;-67
2023/09/24 07:25:59;;;;;;;4.68;1.60;;;;;;;15.26;66.41;97569.59;2089854;28;20318;-67
2023/09/24 07:27:03;;;;;;;5.35;1.73;;;;;;;15.49;66.21;97574.59;2089792;28;20221;-67
2023/09/24 07:28:04;;;;;;;4.65;1.58;;;;;;;15.89;65.68;97576.19;2090902;28;20245;-67
2023/09/24 07:29:06;;;;;;;2.95;1.20;;;;;;;16.32;64.67;97568.66;2091084;28;20243;-67
2023/09/24 07:30:08;;;;;;;3.83;1.58;;;;;;;16.52;64.37;97572.00;2090660;28;20204;-68
2023/09/24 07:31:19;;;;;;;3.10;1.60;;;;;;;17.28;61.63;97573.97;2090023;28;20208;-67
2023/09/24 07:32:21;;;;;;;4.20;1.20;;;;;;;17.40;61.05;97572.44;2090656;28;20217;-67
2023/09/24 07:33:23;;;;;;;3.70;1.40;;;;;;;17.18;61.70;97575.44;2090615;28;20255;-67
2023/09/24 07:34:25;;;;;;;2.90;1.20;;;;;;;16.80;62.34;97579.28;2089084;28;20197;-67
2023/09/24 07:35:27;;;;;;;3.28;1.38;;;;;;;16.29;63.78;97574.94;2086870;28;20533;-67
2023/09/24 07:36:32;;;;;;;2.75;1.40;;;;;;;16.73;63.22;97583.16;2087790;28;20194;-67
2023/09/24 07:37:49;;;;;;;4.72;1.42;;;;;;;16.86;62.67;97575.44;2090283;28;20198;-67
2023/09/24 07:38:51;;;;;;;8.25;1.67;;;;;;;17.12;62.94;97572.22;2090064;28;20525;-68
2023/09/24 07:39:53;;;;;;;3.78;1.40;;;;;;;17.27;62.16;97577.56;2090638;28;20196;-69
2023/09/24 07:40:54;;;;;;;6.40;2.10;;;;;;;18.51;59.37;97568.50;2089200;28;20200;-67
2023/09/24 07:41:56;;;;;;;3.75;1.33;;;;;;;18.72;57.72;97571.56;2090333;28;20228;-69
2023/09/24 07:42:57;;;;;;;3.75;1.52;;;;;;;19.80;55.92;97576.16;2086686;28;20239;-68
2023/09/24 07:43:59;;;;;;;3.72;1.63;;;;;;;19.02;57.10;97570.59;2087519;28;20231;-67
2023/09/24 07:45:00;;;;;;;7.15;1.55;;;;;;;18.77;57.68;97574.78;2086742;28;20383;-67
2023/09/24 07:46:06;;;;;;;4.35;1.85;;;;;;;19.98;55.95;97582.03;2088861;28;20236;-67
2023/09/24 07:47:08;;;;;;;3.90;1.55;;;;;;;19.48;56.22;97587.09;2087484;28;20317;-69
2023/09/24 07:48:13;;;;;;;6.53;1.42;;;;;;;19.24;57.49;97582.44;2088992;28;20321;-68
2023/09/24 07:49:15;;;;;;;6.00;1.95;;;;;;;19.75;55.63;97577.28;2090414;28;20276;-68
2023/09/24 07:50:16;;;;;;;4.20;1.60;;;;;;;18.86;57.92;97581.28;2090004;28;20252;-68
2023/09/24 07:51:18;;;;;;;3.38;1.70;;;;;;;18.91;57.66;97583.69;2088877;28;20620;-68
2023/09/24 07:52:19;;;;;;;2.85;1.35;;;;;;;19.37;56.46;97582.50;2086657;28;20197;-68
2023/09/24 07:53:22;;;;;;;3.95;1.67;;;;;;;20.59;54.39;97586.69;2086893;28;20586;-68
2023/09/24 07:54:23;;;;;;;4.30;1.83;;;;;;;19.73;55.36;97584.50;2086754;28;20204;-68
2023/09/24 07:55:25;;;;;;;3.80;1.10;;;;;;;20.29;54.99;97585.22;2087107;28;20740;-68
2023/09/24 07:56:27;;;;;;;6.18;1.60;;;;;;;19.84;55.23;97577.66;2088989;28;20201;-68
2023/09/24 07:57:28;;;;;;;5.95;1.55;;;;;;;19.53;56.45;97583.19;2091546;28;20197;-68
2023/09/24 07:58:30;;;;;;;4.82;1.58;;;;;;;20.83;53.74;97592.06;2086645;28;20201;-68
2023/09/24 07:59:31;;;;;;;3.20;1.58;;;;;;;19.67;55.77;97582.25;2085011;28;20205;-68
2023/09/24 08:00:33;;;;;;;4.40;1.40;;;;;;;19.72;56.61;97580.16;2085683;28;20199;-68
2023/09/24 08:01:35;;;;;;;4.57;1.20;;;;;;;19.69;55.73;97585.66;2086436;28;20232;-68
2023/09/24 08:02:36;;;;;;;3.35;1.13;;;;;;;19.61;57.18;97585.31;2085291;28;20252;-68
2023/09/24 08:03:39;;;;;;;4.13;1.67;;;;;;;20.75;54.50;97587.31;2085409;28;20239;-68
2023/09/24 08:04:41;;;;;;;5.65;1.80;;;;;;;21.12;53.27;97589.13;2084776;28;20240;-68
2023/09/24 08:05:42;;;;;;;3.88;1.73;;;;;;;21.46;53.26;97581.34;2085841;28;21246;-68
2023/09/24 08:06:46;;;;;;;4.70;1.35;;;;;;;20.99;53.35;97583.88;2085606;28;20679;-69
2023/09/24 08:07:47;;;;;;;4.90;1.90;;;;;;;20.43;55.58;97585.13;2084488;28;20248;-69
2023/09/24 08:08:49;;;;;;;5.60;1.70;;;;;;;20.75;55.21;97589.09;2081113;28;20240;-69
2023/09/24 08:10:06;;;;;;;5.63;1.30;;;;;;;22.03;52.38;97587.72;2084681;28;20435;-69
2023/09/24 08:11:08;;;;;;;2.45;1.48;;;;;;;22.83;50.60;97583.34;2081301;28;20774;-68
2023/09/24 08:12:10;;;;;;;2.90;1.27;;;;;;;21.57;51.07;97589.38;2082106;28;20249;-68
2023/09/24 08:13:11;;;;;;;5.10;1.50;;;;;;;21.47;51.02;97586.53;2087880;28;20436;-68
2023/09/24 08:14:13;;;;;;;3.53;1.23;;;;;;;21.54;51.47;97593.06;2084871;28;20906;-69
2023/09/24 08:15:14;;;;;;;4.82;1.50;;;;;;;20.79;53.86;97593.25;2082792;28;20426;-68
2023/09/24 08:16:16;;;;;;;4.85;1.60;;;;;;;20.92;52.18;97598.53;2081563;28;20617;-68
2023/09/24 08:17:19;;;;;;;3.13;1.60;;;;;;;21.15;52.09;97592.41;2082762;28;20204;-68
2023/09/24 08:18:20;;;;;;;4.30;1.88;;;;;;;21.92;51.12;97593.03;2082313;28;20225;-68
2023/09/24 08:19:22;;;;;;;5.85;1.50;;;;;;;23.00;47.88;97589.94;2082361;28;20247;-69
2023/09/24 08:20:23;;;;;;;4.97;1.85;;;;;;;22.35;48.97;97587.03;2088585;28;20201;-68
2023/09/24 08:21:25;;;;;;;5.63;1.30;;;;;;;21.83;51.05;97594.56;2087852;28;20197;-68
2023/09/24 08:22:26;;;;;;;5.05;2.35;;;;;;;20.79;53.16;97590.63;2083951;28;20714;-68
2023/09/24 08:23:31;;;;;;;3.10;2.00;;;;;;;20.55;54.26;97588.69;2085665;28;20626;-68
2023/09/24 08:24:33;;;;;;;5.35;1.88;;;;;;;21.57;51.86;97586.72;2086179;28;20198;-69
2023/09/24 08:25:35;;;;;;;4.43;1.92;;;;;;;21.66;51.60;97587.84;2081173;28;20217;-68
2023/09/24 08:26:37;;;;;;;4.65;1.80;;;;;;;21.96;50.34;97583.84;2084547;28;20225;-68
2023/09/24 08:27:38;;;;;;;7.95;1.60;;;;;;;21.97;50.68;97588.19;2083833;28;20221;-68
2023/09/24 08:28:40;;;;;;;3.38;1.50;;;;;;;23.25;47.43;97580.84;2083227;28;20224;-68
2023/09/24 08:29:42;;;;;;;6.40;1.90;;;;;;;20.87;52.47;97586.44;2086024;28;20208;-69
2023/09/24 08:30:44;;;;;;;8.85;1.58;;;;;;;21.13;52.12;97585.53;2084354;28;20251;-68
2023/09/24 08:31:46;;;;;;;3.17;1.35;;;;;;;21.80;51.33;97586.81;2084165;28;20223;-68
2023/09/24 08:32:47;;;;;;;3.72;1.30;;;;;;;20.98;51.92;97585.66;2084092;28;20612;-68
2023/09/24 08:33:50;;;;;;;7.47;1.50;;;;;;;21.37;51.55;97585.53;2084789;28;20201;-68
2023/09/24 08:34:52;;;;;;;9.18;1.90;;;;;;;21.26;51.42;97583.66;2080573;28;20226;-67
2023/09/24 08:35:54;;;;;;;2.88;1.10;;;;;;;20.58;52.08;97595.59;2081153;28;20209;-69
2023/09/24 08:36:55;;;;;;;5.65;1.38;;;;;;;20.04;53.45;97593.06;2083554;28;20783;-70
2023/09/24 08:37:56;;;;;;;6.15;1.75;;;;;;;21.00;52.39;97585.53;2083939;28;20197;-68
2023/09/24 08:38:58;;;;;;;7.03;1.33;;;;;;;20.55;52.68;97586.88;2084432;28;20204;-69
2023/09/24 08:40:04;;;;;;;6.07;1.23;;;;;;;19.97;53.91;97586.50;2086226;28;20679;-69
2023/09/24 08:41:12;;;;;;;10.57;2.35;;;;;;;19.72;53.69;97587.25;2085361;28;20205;-68
2023/09/24 08:42:15;;;;;;;3.78;1.52;;;;;;;20.31;53.19;97589.44;2085110;28;20238;-69
2023/09/24 08:43:19;;;;;;;5.63;1.80;;;;;;;20.41;53.22;97591.47;2082480;28;20287;-67
2023/09/24 08:44:24;;;;;;;4.50;1.70;;;;;;;20.82;51.95;97598.34;2084455;28;20211;-68
2023/09/24 08:45:29;;;;;;;3.80;1.60;;;;;;;20.09;52.48;97591.88;2084147;28;20201;-67
2023/09/24 08:46:31;;;;;;;5.90;1.65;;;;;;;20.61;52.85;97596.22;2079992;28;20251;-67
2023/09/24 08:47:34;;;;;;;3.05;1.55;;;;;;;19.95;53.86;97596.34;2081489;28;20190;-67
2023/09/24 08:48:38;;;;;;;4.60;1.35;;;;;;;18.89;56.03;97598.75;2083730;28;20284;-68
2023/09/24 08:49:40;;;;;;;4.63;1.50;;;;;;;18.69;56.89;97592.06;2083988;28;20220;-67
2023/09/24 08:50:43;;;;;;;4.93;1.42;;;;;;;18.63;56.96;97592.44;2084311;28;20357;-67
2023/09/24 08:51:46;;;;;;;7.32;1.80;;;;;;;19.58;54.71;97594.31;2083967;28;20221;-67
2023/09/24 08:52:47;;;;;;;3.80;1.33;;;;;;;19.73;54.80;97588.94;2084414;28;20209;-67
2023/09/24 08:53:50;;;;;;;9.88;1.70;;;;;;;19.46;54.17;97589.81;2081642;28;20207;-68
2023/09/24 08:54:52;;;;;;;5.40;2.00;;;;;;;19.55;53.48;97583.06;2080391;28;20193;-68
2023/09/24 08:55:54;;;;;;;7.45;1.30;;;;;;;20.27;52.98;97587.13;2085464;28;20201;-68
2023/09/24 08:56:56;;;;;;;6.32;1.92;;;;;;;20.86;53.05;97589.19;2082967;28;20689;-67
2023/09/24 08:57:57;;;;;;;6.32;1.98;;;;;;;20.30;52.83;97587.78;2091307;28;20829;-67
2023/09/24 08:58:59;;;;;;;4.70;1.40;;;;;;;20.43;53.48;97579.81;2091259;28;20292;-67
2023/09/24 09:00:04;;;;;;;8.90;1.85;;;;;;;21.25;52.17;97584.59;2084014;28;20595;-68
2023/09/24 09:01:09;;;;;;;8.20;1.50;;;;;;;21.61;51.26;97580.22;2080537;28;20255;-67
2023/09/24 09:02:11;;;;;;;6.43;1.58;;;;;;;21.65;50.64;97583.50;2084334;28;20731;-68
2023/09/24 09:03:13;;;;;;;7.43;1.98;;;;;;;20.86;50.62;97581.22;2081090;28;20209;-68
2023/09/24 09:04:15;;;;;;;5.75;1.40;;;;;;;21.21;50.93;97578.66;2086558;28;20216;-67
2023/09/24 09:05:22;;;;;;;6.50;1.60;;;;;;;21.35;51.27;97574.16;2082312;28;20253;-67
2023/09/24 09:06:31;;;;;;;4.45;1.45;;;;;;;20.93;50.75;97569.22;2084206;28;20205;-67
2023/09/24 09:07:34;;;;;;;4.70;1.73;;;;;;;19.84;51.33;97573.19;2082929;28;20530;-67
2023/09/24 09:08:52;;;;;;;5.40;1.75;;;;;;;20.08;52.38;97580.44;2083386;28;20709;-67
2023/09/24 09:09:59;;;;;;;4.60;1.50;;;;;;;21.04;49.79;97574.59;2082891;28;20201;-67
2023/09/24 09:11:01;;;;;;;3.75;1.45;;;;;;;21.70;48.27;97565.41;2085804;28;20569;-67
2023/09/24 09:12:02;;;;;;;7.20;1.65;;;;;;;20.69;50.35;97574.47;2084345;28;20256;-67
2023/09/24 09:13:05;;;;;;;8.05;1.98;;;;;;;19.66;52.36;97569.13;2082175;28;20210;-67
2023/09/24 09:14:07;;;;;;;10.13;2.28;;;;;;;19.17;53.89;97567.91;2080920;28;20293;-67
2023/09/24 09:15:16;;;;;;;5.75;1.50;;;;;;;20.47;52.68;97578.63;2081006;28;20198;-68
2023/09/24 09:16:20;;;;;;;4.93;1.83;;;;;;;22.06;50.08;97573.34;2082567;28;20721;-66
2023/09/24 09:17:24;;;;;;;5.00;2.05;;;;;;;22.31;47.60;97574.97;2083623;28;20216;-66
2023/09/24 09:18:26;;;;;;;4.95;1.50;;;;;;;23.19;47.32;97568.03;2085602;28;20661;-66
2023/09/24 09:19:30;;;;;;;5.15;2.30;;;;;;;23.78;46.70;97568.50;2085139;28;20206;-67
2023/09/24 09:20:40;;;;;;;3.75;1.48;;;;;;;24.41;46.33;97573.00;2082337;28;20201;-68
2023/09/24 09:21:42;;;;;;;9.25;1.20;;;;;;;25.03;45.00;97565.81;2082833;28;20727;-67
2023/09/24 09:22:46;;;;;;;5.40;1.30;;;;;;;25.41;42.96;97568.72;2084575;28;20200;-67
2023/09/24 09:23:47;;;;;;;6.28;1.50;;;;;;;24.86;42.24;97572.66;2085034;28;20255;-67
2023/09/24 09:25:04;;;;;;;4.95;1.50;;;;;;;24.67;43.93;97570.78;2080974;28;20202;-67
2023/09/24 09:26:06;;;;;;;8.15;2.00;;;;;;;25.56;42.67;97580.66;2081069;28;20193;-67
2023/09/24 09:27:08;;;;;;;7.22;1.67;;;;;;;26.00;42.47;97568.69;2083295;28;20636;-67
2023/09/24 09:28:28;;;;;;;5.72;2.00;;;;;;;23.96;42.27;97572.34;2080883;28;20251;-68
2023/09/24 09:29:29;;;;;;;5.28;1.38;;;;;;;23.99;43.08;97573.06;2081108;28;20279;-67
2023/09/24 09:30:31;;;;;;;4.55;1.73;;;;;;;24.71;41.83;97572.19;2080981;28;20206;-67
2023/09/24 09:31:47;;;;;;;5.07;1.50;;;;;;;23.78;43.74;97576.50;2083218;28;20194;-67
2023/09/24 09:32:49;;;;;;;5.22;1.60;;;;;;;25.14;42.90;97572.88;2082890;28;20285;-67
2023/09/24 09:33:51;;;;;;;2.90;1.20;;;;;;;24.61;42.56;97571.28;2084185;28;20502;-67
2023/09/24 09:34:53;;;;;;;4.10;1.40;;;;;;;24.34;43.94;97574.50;2084881;28;20253;-67
2023/09/24 09:35:55;;;;;;;10.55;2.33;;;;;;;23.92;43.98;97567.38;2083955;28;20669;-67
2023/09/24 09:37:16;;;;;;;5.18;1.60;;;;;;;24.00;43.39;97572.06;2085148;28;20224;-67
2023/09/24 09:38:18;;;;;;;9.45;1.90;;;;;;;24.80;43.18;97569.66;2084332;28;20579;-67
2023/09/24 09:39:19;;;;;;;5.15;2.10;;;;;;;25.79;41.97;97576.84;2085084;28;20208;-67
2023/09/24 09:40:21;;;;;;;4.35;1.40;;;;;;;24.87;41.39;97568.97;2083772;28;20198;-67
2023/09/24 09:41:24;;;;;;;5.10;1.50;;;;;;;24.26;43.42;97570.69;2083732;28;20200;-67
2023/09/24 09:42:32;;;;;;;4.50;1.77;;;;;;;25.14;43.34;97566.66;2084213;28;20199;-67
2023/09/24 09:43:35;;;;;;;9.52;2.47;;;;;;;25.62;42.57;97567.72;2083324;28;20656;-67
2023/09/24 09:44:37;;;;;;;5.22;1.38;;;;;;;26.54;41.12;97564.47;2084979;28;20207;-67
2023/09/24 09:45:40;;;;;;;4.57;1.95;;;;;;;26.55;40.80;97565.28;2082189;28;20536;-67
2023/09/24 09:46:45;;;;;;;7.00;2.05;;;;;;;25.99;41.34;97564.31;2082994;28;20308;-67
2023/09/24 09:47:57;;;;;;;4.18;1.65;;;;;;;24.69;43.17;97567.97;2084707;28;20247;-67
2023/09/24 09:49:19;;;;;;;4.10;1.65;;;;;;;24.35;44.50;97566.38;2084048;28;20224;-67
2023/09/24 09:50:22;;;;;;;4.22;1.40;;;;;;;25.22;43.30;97567.66;2085675;28;20196;-67
2023/09/24 09:51:25;;;;;;;7.05;1.77;;;;;;;25.13;42.89;97572.97;2084504;28;20204;-67
2023/09/24 09:52:32;;;;;;;6.32;1.70;;;;;;;24.93;41.93;97567.59;2083908;28;20746;-67
2023/09/24 09:53:36;;;;;;;4.72;1.45;;;;;;;23.02;45.03;97565.84;2090656;28;20208;-67
2023/09/24 09:54:39;;;;;;;7.60;1.60;;;;;;;24.70;44.04;97564.31;2090253;28;20275;-67
2023/09/24 09:55:42;;;;;;;6.32;1.63;;;;;;;24.67;42.96;97567.25;2084760;28;20254;-68
2023/09/24 09:56:43;;;;;;;6.10;1.73;;;;;;;24.29;43.94;97573.09;2085405;28;20558;-67
2023/09/24 09:57:46;;;;;;;4.57;1.50;;;;;;;24.55;43.23;97569.97;2086479;28;20200;-67
2023/09/24 09:58:51;;;;;;;5.40;1.50;;;;;;;25.96;41.18;97559.25;2082393;28;20201;-67
2023/09/24 09:59:54;;;;;;;4.18;1.60;;;;;;;25.23;41.68;97571.16;2082450;28;20630;-67
2023/09/24 10:00:57;;;;;;;3.22;1.50;;;;;;;24.35;42.61;97563.69;2084398;28;20242;-67
2023/09/24 10:01:59;;;;;;;6.95;2.13;;;;;;;25.70;41.64;97559.81;2084922;28;20217;-67
2023/09/24 10:03:02;;;;;;;5.47;1.55;;;;;;;25.57;40.75;97558.31;2087511;28;20553;-67
2023/09/24 10:04:06;;;;;;;5.05;1.70;;;;;;;26.59;39.48;97563.16;2084005;28;20216;-67
2023/09/24 10:05:10;;;;;;;2.83;1.45;;;;;;;25.17;41.24;97561.91;2084564;28;20247;-67
2023/09/24 10:06:13;;;;;;;4.32;1.50;;;;;;;23.28;43.60;97564.59;2084609;28;20207;-67
2023/09/24 10:07:15;;;;;;;5.80;1.92;;;;;;;23.61;43.82;97560.13;2083526;28;20263;-67
2023/09/24 10:08:39;;;;;;;5.68;1.67;;;;;;;24.12;43.30;97565.69;2081916;28;20197;-67
2023/09/24 10:09:41;;;;;;;5.95;1.88;;;;;;;24.50;42.03;97553.50;2083807;28;20211;-67
2023/09/24 10:10:42;;;;;;;4.32;1.85;;;;;;;23.48;44.03;97557.63;2084458;28;20245;-67
2023/09/24 10:11:44;;;;;;;3.95;1.50;;;;;;;24.31;42.55;97556.94;2082414;28;20226;-67
2023/09/24 10:12:45;;;;;;;8.43;2.30;;;;;;;24.60;42.35;97561.56;2080626;28;20518;-67
2023/09/24 10:13:49;;;;;;;9.48;1.70;;;;;;;24.09;42.93;97564.13;2080466;28;20264;-67
2023/09/24 10:14:55;;;;;;;5.47;1.70;;;;;;;24.81;42.09;97566.88;2083154;28;20207;-67
2023/09/24 10:16:25;;;;;;;6.13;1.80;;;;;;;24.12;42.62;97565.69;2080724;28;20198;-67
2023/09/24 10:17:27;;;;;;;6.38;1.65;;;;;;;23.75;43.15;97560.78;2076040;28;20222;-67
2023/09/24 10:18:29;;;;;;;3.22;1.75;;;;;;;22.60;44.86;97559.38;2075969;28;20191;-67
2023/09/24 10:19:54;;;;;;;7.20;1.60;;;;;;;22.67;43.96;97562.41;2073479;28;20277;-67
2023/09/24 10:20:59;;;;;;;4.90;1.90;;;;;;;23.16;44.56;97560.31;2074596;28;20246;-67
2023/09/24 10:22:24;;;;;;;3.58;1.50;;;;;;;23.78;43.00;97563.19;2080917;28;20898;-67
2023/09/24 10:23:29;;;;;;;7.32;1.90;;;;;;;25.82;40.78;97557.88;2078779;28;20195;-67
2023/09/24 10:24:36;;;;;;;2.47;1.33;;;;;;;26.32;39.56;97556.78;2077027;28;20198;-67
2023/09/24 10:25:39;;;;;;;5.65;1.75;;;;;;;25.83;39.51;97565.75;2073551;28;20199;-67
2023/09/24 10:27:01;;;;;;;4.65;1.40;;;;;;;26.32;38.32;97562.16;2074777;28;20280;-67
2023/09/24 10:28:07;;;;;;;4.45;1.70;;;;;;;26.18;38.33;97552.75;2074502;28;20239;-67
2023/09/24 10:29:12;;;;;;;2.85;1.20;;;;;;;25.73;38.71;97559.56;2074466;28;20216;-67
2023/09/24 10:30:13;;;;;;;6.82;1.40;;;;;;;24.98;39.71;97559.19;2076292;28;20204;-67
2023/09/24 10:31:17;;;;;;;7.05;2.00;;;;;;;24.96;40.94;97558.47;2076376;28;20775;-67
2023/09/24 10:32:20;;;;;;;4.25;1.58;;;;;;;24.27;41.66;97559.03;2076946;28;20677;-67
2023/09/24 10:33:52;;;;;;;5.35;1.95;;;;;;;23.40;42.42;97559.25;2074901;28;20700;-67
2023/09/24 10:34:59;;;;;;;6.25;1.90;;;;;;;23.57;43.50;97553.34;2077032;28;20199;-67
2023/09/24 10:36:22;;;;;;;3.67;1.58;;;;;;;23.41;43.67;97553.78;2075575;28;20210;-67
2023/09/24 10:37:25;;;;;;;4.35;1.90;;;;;;;24.67;42.27;97551.22;2075952;28;20878;-67
2023/09/24 10:38:26;;;;;;;4.28;1.55;;;;;;;26.01;40.68;97548.97;2076378;28;20198;-67
2023/09/24 10:39:28;;;;;;;8.98;2.00;;;;;;;26.87;39.55;97546.16;2075391;28;20195;-67
2023/09/24 10:40:31;;;;;;;4.38;1.75;;;;;;;27.86;38.57;97535.56;2074604;28;20227;-67
2023/09/24 10:41:34;;;;;;;3.83;1.58;;;;;;;28.61;37.36;97540.38;2076308;28;20298;-67
2023/09/24 10:42:41;;;;;;;5.78;1.52;;;;;;;27.98;35.96;97545.03;2080686;28;20202;-67
2023/09/24 10:44:22;;;;;;;3.90;1.80;;;;;;;26.22;37.13;97549.66;2075285;28;20290;-67
2023/09/24 10:45:24;;;;;;;6.40;1.30;;;;;;;25.03;38.94;97544.44;2074132;28;20205;-67
2023/09/24 10:46:26;;;;;;;5.05;1.75;;;;;;;24.68;40.43;97550.25;2074812;28;20197;-67
2023/09/24 10:47:30;;;;;;;6.10;2.33;;;;;;;23.45;41.61;97549.03;2077045;28;20220;-67
2023/09/24 10:48:33;;;;;;;4.28;2.30;;;;;;;23.81;42.28;97546.94;2076736;28;20592;-67
2023/09/24 10:50:24;;;;;;;6.25;1.73;;;;;;;25.26;40.65;97547.69;2074207;28;20283;-67
2023/09/24 10:51:26;;;;;;;8.88;2.03;;;;;;;26.48;40.05;97540.94;2070283;28;20269;-67
2023/09/24 10:52:27;;;;;;;4.30;1.60;;;;;;;27.47;38.79;97542.09;2071134;28;20219;-67
2023/09/24 10:53:29;;;;;;;4.47;1.65;;;;;;;28.25;37.55;97542.38;2070164;28;20214;-67
2023/09/24 10:54:30;;;;;;;5.07;1.80;;;;;;;28.37;37.66;97543.81;2066259;28;20229;-69
2023/09/24 10:55:34;;;;;;;4.85;1.65;;;;;;;28.78;37.29;97551.25;2068173;28;20293;-68
2023/09/24 10:56:35;;;;;;;4.25;1.15;;;;;;;28.43;35.83;97550.34;2070672;28;20252;-67
2023/09/24 10:57:37;;;;;;;5.15;1.77;;;;;;;27.29;37.87;97542.06;2070983;28;20204;-67
2023/09/24 10:58:47;;;;;;;6.38;1.92;;;;;;;26.43;38.96;97537.88;2071081;28;20199;-67
2023/09/24 10:59:49;;;;;;;4.80;1.98;;;;;;;25.62;40.49;97544.50;2070874;28;20251;-67
2023/09/24 11:00:51;;;;;;;5.35;2.03;;;;;;;25.82;40.67;97539.16;2069544;28;21326;-67
2023/09/24 11:01:53;;;;;;;5.15;2.05;;;;;;;27.38;39.46;97543.00;2070561;28;20229;-67
2023/09/24 11:03:05;;;;;;;4.13;1.60;;;;;;;28.05;37.25;97537.25;2071285;28;20685;-67
2023/09/24 11:04:08;;;;;;;4.03;1.33;;;;;;;26.93;39.11;97539.38;2070479;28;20288;-67
2023/09/24 11:05:11;;;;;;;5.22;1.70;;;;;;;27.67;37.90;97537.41;2071195;28;20205;-67
2023/09/24 11:06:12;;;;;;;5.75;1.77;;;;;;;28.44;36.84;97541.31;2070585;28;20198;-68
2023/09/24 11:07:14;;;;;;;4.35;1.40;;;;;;;27.94;36.83;97542.81;2070447;28;20234;-67
2023/09/24 11:08:18;;;;;;;4.95;1.88;;;;;;;26.52;36.54;97538.81;2071024;28;20693;-67
2023/09/24 11:09:21;;;;;;;3.22;1.40;;;;;;;26.55;37.16;97541.19;2071003;28;20297;-67
2023/09/24 11:10:25;;;;;;;3.25;1.30;;;;;;;26.44;37.29;97541.41;2069681;28;20620;-67
2023/09/24 11:11:26;;;;;;;4.32;2.05;;;;;;;24.16;41.08;97536.94;2070637;28;20194;-67
2023/09/24 11:12:28;;;;;;;7.10;1.95;;;;;;;24.07;41.75;97541.22;2068742;28;20226;-67
2023/09/24 11:13:30;;;;;;;6.07;1.70;;;;;;;23.09;42.57;97537.75;2070822;28;20197;-68
2023/09/24 11:14:32;;;;;;;6.57;1.77;;;;;;;22.65;43.66;97538.56;2070781;28;20224;-67
2023/09/24 11:15:36;;;;;;;5.05;1.63;;;;;;;23.72;42.71;97534.38;2070737;28;20201;-67
2023/09/24 11:16:38;;;;;;;6.13;1.77;;;;;;;25.36;40.20;97534.38;2065773;28;20233;-67
2023/09/24 11:17:39;;;;;;;5.63;1.60;;;;;;;26.27;39.86;97533.16;2064603;28;20200;-67
2023/09/24 11:18:47;;;;;;;5.50;1.77;;;;;;;26.85;38.46;97536.56;2070947;28;20226;-69
2023/09/24 11:19:50;;;;;;;3.85;1.70;;;;;;;27.88;37.51;97532.72;2069214;28;20420;-69
2023/09/24 11:20:52;;;;;;;4.78;1.55;;;;;;;28.26;37.29;97533.34;2070532;28;20409;-70
2023/09/24 11:21:54;;;;;;;4.57;1.52;;;;;;;28.34;36.97;97528.00;2068161;28;20245;-69
2023/09/24 11:22:56;;;;;;;3.33;1.50;;;;;;;28.50;37.33;97529.94;2070464;28;20205;-69
2023/09/24 11:23:58;;;;;;;4.95;1.60;;;;;;;28.88;37.26;97526.94;2070690;28;20199;-69
2023/09/24 11:25:11;;;;;;;4.75;1.80;;;;;;;29.30;36.34;97528.72;2070433;28;20264;-69
2023/09/24 11:26:13;;;;;;;3.50;1.40;;;;;;;29.14;36.42;97522.28;2069573;28;20203;-70
2023/09/24 11:27:14;;;;;;;5.50;1.70;;;;;;;28.87;35.90;97525.25;2070474;28;20234;-69
2023/09/24 11:28:16;;;;;;;5.28;1.50;;;;;;;27.92;36.65;97518.84;2073024;28;20206;-69
2023/09/24 11:29:17;;;;;;;7.38;1.77;;;;;;;27.96;36.40;97520.19;2076165;28;20230;-70
2023/09/24 11:30:21;;;;;;;6.75;2.08;;;;;;;26.28;38.62;97515.25;2076138;28;20528;-70
2023/09/24 11:31:26;;;;;;;5.40;1.77;;;;;;;27.68;37.89;97522.16;2071296;28;20205;-70
2023/09/24 11:32:28;;;;;;;3.05;1.33;;;;;;;27.98;37.54;97523.56;2074042;28;20286;-71
2023/09/24 11:33:29;;;;;;;6.22;2.28;;;;;;;28.15;36.80;97524.56;2074943;28;20194;-70
2023/09/24 11:34:32;;;;;;;4.97;2.00;;;;;;;27.92;37.51;97518.84;2081850;28;20197;-71
2023/09/24 11:35:37;;;;;;;2.93;1.70;;;;;;;28.13;37.09;97515.81;2081208;28;20194;-71
2023/09/24 11:36:38;;;;;;;5.45;2.30;;;;;;;28.50;37.65;97519.19;2076241;28;20463;-71
2023/09/24 11:37:49;;;;;;;7.68;1.55;;;;;;;29.28;36.62;97510.06;2077127;28;20705;-71
2023/09/24 11:38:59;;;;;;;4.63;1.50;;;;;;;29.20;36.35;97517.25;2078359;28;20212;-68
2023/09/24 11:40:01;;;;;;;5.45;1.20;;;;;;;29.09;34.72;97513.88;2073170;28;20432;-70
2023/09/24 11:41:05;;;;;;;6.40;2.30;;;;;;;28.20;35.62;97521.38;2073817;28;20195;-70
2023/09/24 11:42:06;;;;;;;1.80;1.10;;;;;;;28.82;35.41;97523.03;2074655;28;20462;-70
2023/09/24 11:43:11;;;;;;;5.03;1.50;;;;;;;26.17;36.67;97518.94;2076961;28;20427;-71
2023/09/24 11:44:12;;;;;;;5.50;1.63;;;;;;;24.84;38.61;97520.38;2077233;28;20428;-70
2023/09/24 11:45:14;;;;;;;4.32;1.98;;;;;;;24.39;38.95;97509.09;2076893;28;20198;-71
2023/09/24 11:46:16;;;;;;;6.75;1.80;;;;;;;26.40;38.05;97508.72;2080903;28;20197;-70
2023/09/24 11:47:18;;;;;;;3.58;1.77;;;;;;;23.41;40.69;97513.81;2080047;28;20222;-71
2023/09/24 11:48:28;;;;;;;6.50;1.50;;;;;;;22.93;43.02;97507.06;2077446;28;20193;-71